West Gilgo Beach, New York
Current Conditions -  °F | °C
As of 7:53 PM on Sunday 23 Nov 2014 (Local Time) from KFRG Reporting Station
Clear Clear  
Wind Chill: 50°   Ceiling: Unl
Heat Index: 50°   Visibility: 10mi
Dew Point: 45°   Wind: 6mph
Humidity: 83%   Direction: 200°SSW
Pressure: 30.13"   Gusts: NA
Location:  40.6311°N, 73.3431°W
Report Text: KFRG 240053Z 20005KT 10SM CLR 10/07 A3013 RMK AO2 SLP202 T01000072
Loading
Personal Weather Stations






























Interactive Weather Map New forecast layout! Learn more

10-Day Weather Forecast

Advertisements
Track Severe Weather on mobile